Tiempo atmosférico en la estación meteorológica de Barco De Avila, Ávila (1012 m.)



Fecha
DESCASC
Temp. máxima en grados centígrados (hora)
DESCASC
Temp. mínima en grados centígrados (hora)
DESCASC
Temp. media en grados centígrados
DESCASC
Racha de viento máxima en m/sg (hora)
DESCASC
Velocidad máxima media en intervalos de 10 minutos(hora)
DESCASC
Precipitaciones diarias en mm
DESCASC
Precipitaciones de 00:00 a 06:00 en mm
DESCASC
Precipitaciones de 06:00 a 12:00 en mm
DESCASC
Precipitaciones de 12:00 a 18:00 en mm
DESCASC
Precipitaciones de 18:00 a 24:00 en mm
DESCASC
18-10-2018 16.3 (17:20) 8.6 (08:50) 12.4 6.67 (18:40) 3.61 (18:40) -- -- -- -- --
17-10-2018 18.2 (16:00) 3.8 (08:40) 11 10 (15:00) 6.39 (16:20) -- -- -- -- --
16-10-2018 16.5 (15:50) 8.2 (23:59) 12.3 6.67 (13:30) 3.61 (13:30) -- -- -- -- --
15-10-2018 12.9 (17:00) 4.1 (04:40) 8.5 10.83 (11:30) 6.39 (11:30) -- -- -- -- --
14-10-2018 19 (01:10) 6.8 (00:00) 12.9 16.11 (01:50) 8.89 (01:40) -- -- -- -- --
13-10-2018 22.9 (14:30) 9.6 (00:00) 16.3 12.78 (23:40) 8.33 (23:40) -- -- -- -- --
12-10-2018 20 (15:30) 10.9 (00:00) 15.4 12.5 (13:50) 7.78 (13:10) -- -- -- -- --
11-10-2018 16.4 (17:10) 13.4 (06:40) 14.9 14.72 (03:40) 9.72 (03:40) -- -- -- -- --
10-10-2018 18.9 (17:10) 4.5 (00:00) 11.7 10 (16:00) 5.83 (16:00) -- -- -- -- --
09-10-2018 19.1 (15:30) 3.6 (03:10) 11.4 8.06 (08:40) 4.72 (09:40) -- -- -- -- --
08-10-2018 19 (15:40) -0.1 (08:00) 9.4 7.78 (18:20) 4.17 (16:30) -- -- -- -- --
07-10-2018 18.8 (16:50) 0.5 (08:20) 9.6 7.5 (17:40) 4.44 (18:10) -- -- -- -- --
06-10-2018 24.3 (17:10) 5.9 (06:10) 15.1 10.56 (17:20) 6.11 (14:20) -- -- -- -- --
05-10-2018 25.2 (15:40) 5.8 (07:50) 15.5 8.33 (17:20) 5.83 (17:20) -- -- -- -- --
04-10-2018 26.2 (16:30) 5.1 (00:00) 15.7 6.39 (15:40) 4.17 (06:40) -- -- -- -- --
03-10-2018 25.7 (16:00) 3.6 (00:00) 14.7 6.94 (15:20) 3.89 (00:20) -- -- -- -- --
02-10-2018 22.4 (16:30) 0.3 (00:00) 11.3 6.67 (15:30) 4.44 (04:10) -- -- -- -- --
01-10-2018 22.5 (16:20) 5.1 (00:00) 13.8 8.06 (15:40) 4.17 (05:00) -- -- -- -- --
30-09-2018 26.8 (16:00) 8.2 (00:00) 17.5 6.39 (14:40) 4.44 (04:40) -- -- -- -- --
29-09-2018 27 (17:50) 7.8 (00:00) 17.4 6.94 (15:00) 4.17 (06:10) -- -- -- -- --
28-09-2018 26.7 (17:40) 9.8 (00:00) 18.3 7.22 (15:30) 3.89 (06:50) -- -- -- -- --
27-09-2018 26 (17:10) 12.5 (00:00) 19.3 7.78 (09:20) 4.72 (09:20) 0 0 0 0 0
26-09-2018 24.1 (14:50) 12.1 (00:00) 18.1 11.94 (16:40) 6.94 (16:40) 0 0 0 0 0
25-09-2018 28.2 (17:10) 8.5 (00:00) 18.4 7.22 (13:50) 4.17 (14:50) 0 0 0 0 0
24-09-2018 29.5 (16:50) 9.7 (00:00) 19.6 6.11 (08:30) 3.89 (08:40) 0 0 0 0 0
23-09-2018 30.4 (16:40) 10 (08:00) 20.2 6.39 (03:20) 4.17 (07:00) 0 0 0 0 0
22-09-2018 29.1 (14:50) 10.3 (07:20) 19.7 10 (15:20) 4.44 (07:40) 0 0 0 0 0
21-09-2018 27.5 (15:00) 9.9 (06:40) 18.7 6.94 (14:10) 3.33 (07:00) 0 0 0 0 0
20-09-2018 27.8 (16:30) 11.3 (05:30) 19.5 9.44 (17:50) 5.28 (17:40) 0 0 0 0 0

Gráficas

Temp. máximas Temp. mínimas Temp. medias Precipitaciones Rachas de viento máximas Velocidades máximas media en intervalos de 10 minutos

Datos horarios

Fecha y hora oficial Temperatura (ºC) Velocidad del viento (km/h) Dirección del viento Racha (km/h) Dirección de racha Precipitación (mm) Presión (hPa) Tendencia (hPa) Humedad (%)
2018-10-19 23:00:00 13 5 Nordeste 13 Norte -- -- -- 84
2018-10-19 22:00:00 12.6 4 Sudoeste 7 Sur -- -- -- 92
2018-10-19 21:00:00 12.9 0 Calma 8 Nordeste -- -- -- 90
2018-10-19 20:00:00 13.1 0 Calma 6 Oeste -- -- -- 90
2018-10-19 19:00:00 13.4 3 Oeste 18 Este -- -- -- 89
2018-10-19 18:00:00 14.3 9 Este 22 Norte -- -- -- 83
2018-10-19 17:00:00 15.2 11 Norte 24 Noroeste -- -- -- 77
2018-10-19 16:00:00 15 14 Norte 24 Norte -- -- -- 73
2018-10-19 15:00:00 15.1 7 Nordeste 24 Norte -- -- -- 73
2018-10-19 14:00:00 14.5 12 Norte 21 Norte -- -- -- 82
2018-10-19 13:00:00 13.9 6 Norte 16 Este -- -- -- 79
2018-10-19 12:00:00 13.3 10 Nordeste 21 Norte -- -- -- 82
2018-10-19 11:00:00 14.3 9 Nordeste 36 Este -- -- -- 72
2018-10-19 10:00:00 13.3 22 Este 41 Este -- -- -- 75
2018-10-19 09:00:00 11.2 3 Norte 11 Nordeste -- -- -- 91
2018-10-19 08:00:00 11.4 5 Nordeste 14 Nordeste -- -- -- 91
2018-10-19 07:00:00 11.4 8 Norte 18 Norte -- -- -- 91
2018-10-19 06:00:00 11.4 9 Norte 23 Norte -- -- -- 91
2018-10-19 05:00:00 11.5 9 Norte 18 Norte -- -- -- 89
2018-10-19 04:00:00 11.5 8 Nordeste 17 Nordeste -- -- -- 89
2018-10-19 03:00:00 11.6 6 Norte 14 Norte -- -- -- 89
2018-10-19 02:00:00 12 4 Nordeste 13 Noroeste -- -- -- 86
2018-10-19 01:00:00 11.9 8 Norte 17 Noroeste -- -- -- 86
2018-10-19 00:00:00 11.7 9 Norte 17 Norte -- -- -- 88
2018-10-18 23:00:00 11.2 2 Noroeste 5 Sudeste -- -- -- 89
2018-10-18 22:00:00 11.9 0 Calma 8 Norte -- -- -- 86
2018-10-18 21:00:00 12.2 3 Oeste 10 Sudoeste -- -- -- 83
2018-10-18 20:00:00 12.7 6 Oeste 11 Oeste -- -- -- 78
2018-10-18 19:00:00 14.8 5 Sudeste 24 Nordeste -- -- -- 66
2018-10-18 18:00:00 16.1 9 Nordeste 23 Nordeste -- -- -- 59
2018-10-18 17:00:00 15.3 5 Sudoeste 9 Oeste -- -- -- 77
2018-10-18 16:00:00 14.9 6 Sudeste 14 Este -- -- -- 74
2018-10-18 15:00:00 15.7 3 Norte 13 Noroeste -- -- -- 69
2018-10-18 14:00:00 14.5 2 Sur 9 Norte -- -- -- 79
2018-10-18 13:00:00 13.5 5 Norte 10 Norte -- -- -- 77
2018-10-18 12:00:00 10.6 4 Noroeste 10 Oeste -- -- -- 93
2018-10-18 11:00:00 9.3 7 Sudoeste 10 Sudoeste -- -- -- 94
2018-10-18 10:00:00 8.9 7 Sudoeste 11 Sudoeste -- -- -- 94
2018-10-18 09:00:00 8.7 8 Sudoeste 12 Sudoeste -- -- -- 94
2018-10-18 08:00:00 8.9 2 Sur 8 Este -- -- -- 91
2018-10-18 07:00:00 9.3 6 Sudoeste 17 Sur -- -- -- 86
2018-10-18 06:00:00 10 8 Sudoeste 15 Sudoeste -- -- -- 94
2018-10-18 05:00:00 9.7 7 Sudoeste 10 Sudoeste -- -- -- 92
2018-10-18 04:00:00 9.8 3 Oeste 4 Oeste -- -- -- 90
2018-10-18 03:00:00 10 3 Sudoeste 8 Sudoeste -- -- -- 89
2018-10-18 02:00:00 10.4 4 Sudoeste 6 Norte -- -- -- 87
2018-10-18 01:00:00 10.7 3 Sudoeste 11 Este -- -- -- 84
2018-10-18 00:00:00 11.3 5 Nordeste 9 Nordeste -- -- -- 80
2018-10-17 23:00:00 12.3 4 Sur 10 Sudoeste -- -- -- 79
2018-10-17 22:00:00 12.6 4 Sudoeste 8 Sudoeste -- -- -- 79
2018-10-17 21:00:00 13.2 3 Sudoeste 8 Sur -- -- -- 76
2018-10-17 20:00:00 13.9 7 Sudoeste 18 Sudoeste -- -- -- 73
2018-10-17 19:00:00 14.7 13 Sudoeste 33 Sudoeste -- -- -- 69
2018-10-17 18:00:00 17.1 18 Sudoeste 35 Sudoeste -- -- -- 59
2018-10-17 17:00:00 17.8 21 Sudoeste 34 Sudoeste -- -- -- 55
2018-10-17 16:00:00 18.2 20 Sudoeste 32 Sudoeste -- -- -- 56
2018-10-17 15:00:00 18.1 18 Sudoeste 36 Sudoeste -- -- -- 56
2018-10-17 14:00:00 17.5 21 Sudoeste 31 Oeste -- -- -- 60
2018-10-17 13:00:00 16.8 17 Sudoeste 27 Sudoeste -- -- -- 60
2018-10-17 12:00:00 14.4 3 Este 6 Este -- -- -- 70
2018-10-17 11:00:00 10.4 2 Sur 11 Sudoeste -- -- -- 82
2018-10-17 10:00:00 6.9 11 Sudoeste 17 Sudoeste -- -- -- 91
2018-10-17 09:00:00 3.8 7 Sudoeste 12 Sudoeste -- -- -- 95
2018-10-17 08:00:00 4.8 10 Sudoeste 17 Sudoeste -- -- -- 95
2018-10-17 07:00:00 4.3 10 Sudoeste 16 Sudoeste -- -- -- 94
2018-10-17 06:00:00 4.7 8 Sudoeste 15 Sudoeste -- -- -- 94
2018-10-17 05:00:00 6 5 Oeste 15 Sur -- -- -- 94
2018-10-17 04:00:00 5.6 9 Sudoeste 13 Sudoeste -- -- -- 95
2018-10-17 03:00:00 5.7 6 Sudoeste 13 Sudoeste -- -- -- 94
2018-10-17 02:00:00 6.4 7 Sudoeste 15 Sudoeste -- -- -- 93
2018-10-17 01:00:00 7.7 8 Sudoeste 15 Sudoeste -- -- -- 92
2018-10-17 00:00:00 8.2 9 Sudoeste 13 Oeste -- -- -- 93
2018-10-16 23:00:00 8.7 7 Sudoeste 10 Sudoeste -- -- -- 92
2018-10-16 22:00:00 9.9 6 Oeste 9 Sudoeste -- -- -- 89
2018-10-16 21:00:00 12.3 2 Noroeste 8 Nordeste -- -- -- 77
2018-10-16 20:00:00 13.8 4 Nordeste 15 Norte -- -- -- 73
2018-10-16 19:00:00 15.1 8 Norte 17 Nordeste -- -- -- 67
2018-10-16 18:00:00 15.7 10 Norte 21 Norte -- -- -- 66
2018-10-16 17:00:00 15.7 10 Norte 18 Nordeste -- -- -- 67
2018-10-16 16:00:00 16.1 9 Nordeste 21 Norte -- -- -- 65
2018-10-16 15:00:00 15.4 8 Norte 24 Noroeste -- -- -- 69
2018-10-16 14:00:00 14.5 10 Norte 24 Norte -- -- -- 74
2018-10-16 13:00:00 14.6 9 Norte 22 Norte -- -- -- 73
2018-10-16 12:00:00 13.3 7 Norte 13 Norte -- -- -- 74
2018-10-16 11:00:00 11.7 2 Este 10 Sudoeste -- -- -- 85
2018-10-16 10:00:00 9.5 5 Sudoeste 8 Sudoeste -- -- -- 92
2018-10-16 09:00:00 8.8 0 Calma 3 Oeste -- -- -- 93
2018-10-16 08:00:00 9 0 Calma 3 Sudoeste -- -- -- 92
2018-10-16 07:00:00 9.1 0 Calma 6 Oeste -- -- -- 91
2018-10-16 06:00:00 9.2 4 Sudoeste 8 Sudoeste -- -- -- 90
2018-10-16 05:00:00 9.1 5 Sudoeste 10 Sudoeste -- -- -- 90
2018-10-16 04:00:00 9 5 Sudoeste 7 Sudoeste -- -- -- 88
2018-10-16 03:00:00 9.1 4 Sudoeste 10 Sudeste -- -- -- 87
2018-10-16 02:00:00 8.9 6 Sur 13 Sur -- -- -- 87
2018-10-16 01:00:00 9.7 0 Calma 5 Sur -- -- -- 93
2018-10-16 00:00:00 9.6 0 Calma 4 Sudoeste -- -- -- 92
2018-10-15 23:00:00 9.9 0 Calma 8 Norte -- -- -- 92
2018-10-15 22:00:00 10.4 4 Nordeste 10 Norte -- -- -- 92
2018-10-15 21:00:00 10.1 5 Noroeste 16 Oeste -- -- -- 87
2018-10-15 20:00:00 10.2 11 Oeste 22 Oeste -- -- -- 85
2018-10-15 19:00:00 11.8 11 Oeste 26 Sudoeste -- -- -- 77
2018-10-15 18:00:00 12.6 15 Sudoeste 30 Sudoeste -- -- -- 76
2018-10-15 17:00:00 12.9 17 Sudoeste 27 Sudoeste -- -- -- 77
2018-10-15 16:00:00 11.7 19 Sudoeste 33 Sudoeste -- -- -- 85
2018-10-15 15:00:00 10.5 15 Sudoeste 33 Sudoeste -- -- -- 85
2018-10-15 14:00:00 9.3 12 Sudoeste 31 Oeste -- -- -- 89
2018-10-15 13:00:00 9 2 Sudoeste 32 Sudoeste -- -- -- 89
2018-10-15 12:00:00 9.4 19 Oeste 39 Sudoeste -- -- -- 85
2018-10-15 11:00:00 8.7 14 Oeste 33 Sudoeste -- -- -- 84
2018-10-15 10:00:00 7.7 20 Oeste 30 Oeste -- -- -- 81
2018-10-15 09:00:00 5.3 13 Sudoeste 17 Sudoeste -- -- -- 91
2018-10-15 08:00:00 5.3 8 Sudoeste 14 Sudoeste -- -- -- 90
2018-10-15 07:00:00 5.2 8 Sudoeste 13 Sudoeste -- -- -- 92
2018-10-15 06:00:00 4.6 6 Sudoeste 11 Sudoeste -- -- -- 92
2018-10-15 05:00:00 4.4 7 Sudoeste 12 Oeste -- -- -- 92
2018-10-15 04:00:00 4.9 4 Sudoeste 10 Oeste -- -- -- 89
2018-10-15 03:00:00 6.2 7 Sudoeste 10 Sudoeste -- -- -- 85
2018-10-15 02:00:00 8.2 3 Nordeste 5 Sudeste -- -- -- 81
2018-10-15 01:00:00 8.7 4 Oeste 15 Noroeste -- -- -- 78
2018-10-15 00:00:00 8.6 6 Norte 14 Norte -- -- -- 80
2018-10-14 23:00:00 9 5 Este 12 Norte -- -- -- 78
2018-10-14 22:00:00 9.3 6 Norte 18 Noroeste -- -- -- 76
2018-10-14 21:00:00 9.9 12 Noroeste 29 Noroeste -- -- -- 72
2018-10-14 20:00:00 10 12 Noroeste 25 Noroeste -- -- -- 75
2018-10-14 19:00:00 10.4 9 Noroeste 18 Oeste -- -- -- 72
2018-10-14 18:00:00 10.5 7 Norte 24 Noroeste -- -- -- 70
2018-10-14 17:00:00 10.1 10 Noroeste 21 Oeste -- -- -- 72
2018-10-14 16:00:00 10 9 Noroeste 24 Norte -- -- -- 73
2018-10-14 15:00:00 9 10 Norte 31 Nordeste -- -- -- 81
2018-10-14 14:00:00 8.6 14 Norte 23 Noroeste -- -- -- 80
2018-10-14 13:00:00 8.6 8 Norte 27 Norte -- -- -- 76
2018-10-14 12:00:00 8.2 10 Norte 24 Norte -- -- -- 83
2018-10-14 11:00:00 7 9 Norte 41 Norte -- -- -- 90
2018-10-14 10:00:00 8.1 17 Norte 35 Norte -- -- -- 85
2018-10-14 09:00:00 8.9 17 Noroeste 30 Noroeste -- -- -- 89
2018-10-14 08:00:00 10.1 15 Oeste 32 Oeste -- -- -- 93
2018-10-14 07:00:00 10.8 22 Oeste 39 Sudoeste -- -- -- 93
2018-10-14 06:00:00 11.8 23 Oeste 45 Oeste -- -- -- 89
2018-10-14 05:00:00 13.8 24 Sur 58 Sudeste -- -- -- 79
2018-10-14 04:00:00 13 26 Sur 57 Sur -- -- -- 85
2018-10-14 03:00:00 15.3 24 Sudoeste 51 Sur -- -- -- 71
2018-10-14 02:00:00 18.2 25 Sur 58 Sudoeste -- -- -- 55
2018-10-14 01:00:00 18.8 18 Sudoeste 39 Sudoeste -- -- -- 53
2018-10-14 00:00:00 18.9 22 Sur 46 Sur -- -- -- 56
2018-10-13 23:00:00 19.5 17 Sudoeste 36 Sur -- -- -- 56
2018-10-13 22:00:00 19.4 19 Sur 39 Sudoeste -- -- -- 55
2018-10-13 21:00:00 19 28 Sur 38 Sur -- -- -- 59
2018-10-13 20:00:00 19.3 18 Sur 33 Sudoeste -- -- -- 57
2018-10-13 19:00:00 20.2 17 Sur 32 Sur -- -- -- 55
2018-10-13 18:00:00 21.3 19 Sur 35 Sur -- -- -- 51
2018-10-13 17:00:00 22.4 21 Sur 37 Sur -- -- -- 49
2018-10-13 16:00:00 22.4 21 Sudoeste 36 Sudoeste -- -- -- 49
2018-10-13 15:00:00 22.4 19 Sudoeste 32 Sudoeste -- -- -- 47
2018-10-13 14:00:00 22.7 18 Sudoeste 33 Oeste -- -- -- 46
2018-10-13 13:00:00 21.6 19 Sudoeste 31 Sudoeste -- -- -- 48
2018-10-13 12:00:00 20.3 16 Sudoeste 25 Sudoeste -- -- -- 54
2018-10-13 11:00:00 17 8 Sudoeste 21 Sudoeste -- -- -- 65
2018-10-13 10:00:00 13.7 9 Sudoeste 22 Sudoeste -- -- -- 73
2018-10-13 09:00:00 11 12 Sudoeste 19 Sudoeste -- -- -- 78
2018-10-13 08:00:00 9.6 5 Sudoeste 15 Sudeste -- -- -- 84
2018-10-13 07:00:00 10.8 5 Sudoeste 13 Sudoeste -- -- -- 80
2018-10-13 06:00:00 11 10 Sur 23 Sur -- -- -- 81
2018-10-13 05:00:00 10.7 4 Sudoeste 15 Sur -- -- -- 84
2018-10-13 04:00:00 11.5 9 Sur 23 Sudeste -- -- -- 82
2018-10-13 03:00:00 11.4 10 Sur 21 Sur -- -- -- 83
2018-10-13 02:00:00 9.9 5 Sudoeste 10 Sudoeste -- -- -- 88
2018-10-13 01:00:00 10.6 5 Sudoeste 13 Sudoeste -- -- -- 87
2018-10-13 00:00:00 10.9 8 Oeste 10 Oeste -- -- -- 88
2018-10-12 23:00:00 11.9 5 Este 10 Este -- -- -- 81
2018-10-12 22:00:00 14.5 4 Sudoeste 14 Oeste -- -- -- 77
2018-10-12 21:00:00 15.6 11 Oeste 20 Oeste -- -- -- 72
2018-10-12 20:00:00 16.4 8 Oeste 30 Sudoeste -- -- -- 69
2018-10-12 19:00:00 17.7 15 Sudoeste 31 Oeste -- -- -- 64
2018-10-12 18:00:00 18.8 19 Sudoeste 32 Sudoeste -- -- -- 60
2018-10-12 17:00:00 19.1 19 Sudoeste 29 Oeste -- -- -- 56
2018-10-12 16:00:00 19.8 18 Sudoeste 36 Sudoeste -- -- -- 52
2018-10-12 15:00:00 19.6 24 Oeste 37 Sudoeste -- -- -- 55
2018-10-12 14:00:00 19.1 27 Sudoeste 45 Oeste -- -- -- 58
2018-10-12 13:00:00 18 26 Sudoeste 41 Sudoeste -- -- -- 62
2018-10-12 12:00:00 16.3 23 Sudoeste 34 Sudoeste -- -- -- 74
2018-10-12 11:00:00 14.5 20 Sudoeste 32 Sudoeste -- -- -- 79
2018-10-12 10:00:00 14.2 17 Sudoeste 29 Sudoeste -- -- -- 74
2018-10-12 09:00:00 12.7 20 Sudoeste 35 Sudoeste -- -- -- 81
2018-10-12 08:00:00 13.1 18 Sudoeste 35 Sudoeste -- -- -- 80
2018-10-12 07:00:00 13.2 17 Sudoeste 30 Sudoeste -- -- -- 80
2018-10-12 06:00:00 13.5 17 Sur 25 Sur -- -- -- 79
2018-10-12 05:00:00 13.3 16 Sudoeste 31 Sudoeste -- -- -- 78
2018-10-12 04:00:00 14.1 20 Sudoeste 36 Sudoeste -- -- -- 79
2018-10-12 03:00:00 14.2 18 Sudoeste 33 Sudoeste -- -- -- 79
2018-10-12 02:00:00 14.4 19 Sudoeste 37 Sudoeste -- -- -- 82
2018-10-12 01:00:00 14.3 22 Sudoeste 40 Oeste -- -- -- 85
2018-10-12 00:00:00 14.7 23 Sudoeste 34 Sudoeste -- -- -- 85
2018-10-11 23:00:00 14.6 21 Sudoeste 36 Sudoeste -- -- -- 83
2018-10-11 22:00:00 15 17 Oeste 29 Oeste -- -- -- 83
2018-10-11 21:00:00 15 13 Sudoeste 25 Sudoeste -- -- -- 84
2018-10-11 20:00:00 15.1 10 Oeste 39 Sudoeste -- -- -- 82
2018-10-11 19:00:00 15.6 18 Sudoeste 46 Sudoeste -- -- -- 80
2018-10-11 18:00:00 15.8 31 Sudoeste 50 Sudoeste -- -- -- 83
2018-10-11 17:00:00 16.3 20 Sudoeste 36 Sudoeste -- -- -- 83
2018-10-11 16:00:00 15.4 26 Sudoeste 40 Sudoeste -- -- -- 86
2018-10-11 15:00:00 15 27 Sudoeste 37 Sudoeste -- -- -- 87
2018-10-11 14:00:00 14.5 19 Sudoeste 30 Sudoeste -- -- -- 88
2018-10-11 13:00:00 14.6 14 Sudoeste 36 Oeste -- -- -- 86
2018-10-11 12:00:00 15.6 12 Sudoeste 25 Oeste -- -- -- 82
2018-10-11 11:00:00 15 15 Sudoeste 44 Oeste -- -- -- 87
2018-10-11 10:00:00 14.2 13 Oeste 28 Oeste -- -- -- 89
2018-10-11 09:00:00 13.8 13 Oeste 27 Sudoeste -- -- -- 89
2018-10-11 08:00:00 13.7 10 Sudoeste 25 Sudoeste -- -- -- 89
2018-10-11 07:00:00 13.4 13 Sudoeste 29 Sudoeste -- -- -- 90
2018-10-11 06:00:00 14.1 23 Sudoeste 39 Sur -- -- -- 83
2018-10-11 05:00:00 14.9 29 Sur 42 Sur -- -- -- 77
2018-10-11 04:00:00 15.6 30 Sudoeste 53 Sudoeste -- -- -- 69
2018-10-11 03:00:00 15.9 28 Sudoeste 42 Sur -- -- -- 63
2018-10-11 02:00:00 16.1 21 Sur 43 Sudoeste -- -- -- 61
2018-10-11 01:00:00 15 5 Noroeste 13 Noroeste -- -- -- 68
2018-10-11 00:00:00 15.3 11 Sudoeste 26 Sudoeste -- -- -- 66
2018-10-10 23:00:00 15.7 17 Sudoeste 28 Sudoeste -- -- -- 62
2018-10-10 22:00:00 15 12 Sudoeste 25 Sudoeste -- -- -- 63
2018-10-10 21:00:00 14.2 9 Sudoeste 20 Sudoeste -- -- -- 63
2018-10-10 20:00:00 14.8 8 Sudoeste 24 Sudoeste -- -- -- 62
2018-10-10 19:00:00 16.5 12 Sudoeste 34 Sudoeste -- -- -- 56
2018-10-10 18:00:00 17.9 21 Sudoeste 34 Sur -- -- -- 49
2018-10-10 17:00:00 18.7 18 Sudoeste 31 Sudoeste -- -- -- 45
2018-10-10 16:00:00 17.6 21 Sudoeste 36 Sudoeste -- -- -- 48
2018-10-10 15:00:00 17 17 Sudoeste 30 Sudoeste -- -- -- 53
2018-10-10 14:00:00 16.2 13 Sudoeste 24 Sudoeste -- -- -- 59
2018-10-10 13:00:00 15.2 17 Sudoeste 29 Oeste -- -- -- 61
2018-10-10 12:00:00 16.4 15 Sur 23 Sur -- -- -- 56
2018-10-10 11:00:00 13 5 Oeste 13 Oeste -- -- -- 67
2018-10-10 10:00:00 7.4 10 Oeste 20 Sudoeste -- -- -- 85
2018-10-10 09:00:00 4.9 12 Sudoeste 22 Sudoeste -- -- -- 90
2018-10-10 08:00:00 5.2 14 Sudoeste 20 Sudoeste -- -- -- 87
2018-10-10 07:00:00 6 15 Sudoeste 26 Sudoeste -- -- -- 84
2018-10-10 06:00:00 6.7 17 Sudoeste 24 Sudoeste -- -- -- 79
2018-10-10 05:00:00 6.1 9 Oeste 19 Sudoeste -- -- -- 82
2018-10-10 04:00:00 5.2 12 Oeste 18 Sudoeste -- -- -- 82
2018-10-10 03:00:00 5.8 12 Sudoeste 20 Oeste -- -- -- 78
2018-10-10 02:00:00 7.5 12 Oeste 20 Sudoeste -- -- -- 75
2018-10-10 01:00:00 9.2 12 Oeste 23 Sur -- -- -- 67
2018-10-10 00:00:00 9.9 9 Sur 20 Sur -- -- -- 65
2018-10-09 23:00:00 12 10 Sur 19 Sur -- -- -- 55
2018-10-09 22:00:00 13.5 8 Sur 16 Sur -- -- -- 50
2018-10-09 21:00:00 14.1 7 Sur 13 Sudeste -- -- -- 49
2018-10-09 20:00:00 14.7 7 Sudeste 18 Sur -- -- -- 49
2018-10-09 19:00:00 15.2 10 Sur 24 Sur -- -- -- 49
2018-10-09 18:00:00 16.9 12 Sudoeste 20 Sur -- -- -- 44
2018-10-09 17:00:00 18 5 Sudeste 13 Este -- -- -- 40
2018-10-09 16:00:00 18.2 3 Norte 15 Nordeste -- -- -- 37
2018-10-09 15:00:00 18.3 5 Sudeste 20 Sur -- -- -- 39
2018-10-09 14:00:00 18.1 6 Sudoeste 17 Oeste -- -- -- 41
2018-10-09 13:00:00 17 10 Sur 19 Sur -- -- -- 41
2018-10-09 12:00:00 15.4 4 Sudoeste 17 Sur -- -- -- 49
2018-10-09 11:00:00 12.4 8 Sur 19 Sudoeste -- -- -- 61
2018-10-09 10:00:00 7.9 13 Sudoeste 24 Sur -- -- -- 76
2018-10-09 09:00:00 3.8 13 Sudoeste 29 Sudoeste -- -- -- 85
2018-10-09 08:00:00 5.5 12 Sudoeste 24 Oeste -- -- -- 78
2018-10-09 07:00:00 4.2 12 Sudoeste 20 Sudoeste -- -- -- 81
2018-10-09 06:00:00 4.2 8 Sudoeste 19 Sudoeste -- -- -- 80
2018-10-09 05:00:00 4.1 12 Sudoeste 23 Oeste -- -- -- 84
2018-10-09 04:00:00 4.4 13 Sudoeste 20 Sudoeste -- -- -- 84
2018-10-09 03:00:00 3.7 8 Oeste 18 Sudoeste -- -- -- 85
2018-10-09 02:00:00 4.6 12 Sudoeste 18 Sudoeste -- -- -- 84
2018-10-09 01:00:00 5.8 10 Sudoeste 16 Sudoeste -- -- -- 79
2018-10-09 00:00:00 6.1 6 Oeste 13 Sudoeste -- -- -- 78
2018-10-08 23:00:00 7.3 9 Sudoeste 12 Sudoeste -- -- -- 73
2018-10-08 22:00:00 9.5 4 Oeste 8 Noroeste -- -- -- 65
2018-10-08 21:00:00 13.1 4 Nordeste 17 Norte -- -- -- 51
2018-10-08 20:00:00 14.8 8 Norte 22 Noroeste -- -- -- 46
2018-10-08 19:00:00 17.4 9 Norte 28 Nordeste -- -- -- 40
2018-10-08 18:00:00 18.5 11 Norte 23 Norte -- -- -- 37
2018-10-08 17:00:00 18.9 12 Norte 27 Noroeste -- -- -- 37
2018-10-08 16:00:00 19 10 Norte 22 Norte -- -- -- 38
2018-10-08 15:00:00 18.9 9 Norte 19 Norte -- -- -- 39
2018-10-08 14:00:00 17.7 6 Noroeste 19 Oeste -- -- -- 40
2018-10-08 13:00:00 16.4 6 Norte 16 Norte -- -- -- 42
2018-10-08 12:00:00 14 5 Norte 14 Este -- -- -- 47
2018-10-08 11:00:00 11.5 5 Oeste 12 Sudoeste -- -- -- 56
2018-10-08 10:00:00 5.6 8 Sudoeste 17 Oeste -- -- -- 80
2018-10-08 09:00:00 1.1 8 Sudoeste 18 Oeste -- -- -- 88
2018-10-08 08:00:00 -0.1 6 Sudoeste 17 Oeste -- -- -- 88
2018-10-08 07:00:00 0.2 8 Sudoeste 12 Sudoeste -- -- -- 89
2018-10-08 06:00:00 0.8 0 Calma 12 Sudoeste -- -- -- 83
2018-10-08 05:00:00 1.7 6 Oeste 16 Sudoeste -- -- -- 85
2018-10-08 04:00:00 3 8 Sudoeste 13 Oeste -- -- -- 79
2018-10-08 03:00:00 3 6 Sudoeste 14 Sudoeste -- -- -- 79
2018-10-08 02:00:00 4 6 Sudoeste 23 Sur -- -- -- 74
2018-10-08 01:00:00 5.3 10 Oeste 16 Sudoeste -- -- -- 68
2018-10-08 00:00:00 6.8 8 Oeste 14 Oeste -- -- -- 63
2018-10-07 23:00:00 6.4 9 Oeste 14 Sudoeste -- -- -- 67
2018-10-07 22:00:00 8.7 6 Oeste 15 Norte -- -- -- 59
2018-10-07 21:00:00 12.3 11 Norte 20 Norte -- -- -- 45
2018-10-07 20:00:00 13.7 10 Norte 23 Noroeste -- -- -- 41
2018-10-07 19:00:00 16.3 12 Norte 27 Norte -- -- -- 36
2018-10-07 18:00:00 17.6 15 Norte 27 Norte -- -- -- 34
2018-10-07 17:00:00 18.8 11 Norte 26 Noroeste -- -- -- 33
2018-10-07 16:00:00 18.6 6 Noroeste 20 Norte -- -- -- 34
2018-10-07 15:00:00 17.5 6 Nordeste 19 Noroeste -- -- -- 37
2018-10-07 14:00:00 16 6 Norte 18 Nordeste -- -- -- 42
2018-10-07 13:00:00 14 8 Norte 18 Noroeste -- -- -- 49
2018-10-07 12:00:00 12.6 7 Norte 16 Oeste -- -- -- 56
2018-10-07 11:00:00 9.5 10 Sudoeste 17 Sur -- -- -- 70
2018-10-07 10:00:00 3.8 4 Sudoeste 6 Sudoeste -- -- -- 89
2018-10-07 09:00:00 0.5 3 Sudeste 8 Sudoeste 0 -- -- 90
2018-10-07 08:00:00 1.1 0 Calma 5 Oeste 0 -- -- 88
2018-10-07 07:00:00 1.8 3 Sudoeste 4 Sudoeste 0 -- -- 87
2018-10-07 06:00:00 3.5 3 Sudoeste 5 Oeste 0 -- -- 86
2018-10-07 05:00:00 4.2 0 Calma 6 Sudoeste 0 -- -- 81
2018-10-07 04:00:00 5.9 4 Oeste 9 Oeste 0 -- -- 80
2018-10-07 03:00:00 8 4 Nordeste 13 Norte 0 -- -- 69
2018-10-07 02:00:00 10.2 8 Norte 23 Norte 0 -- -- 62
2018-10-07 01:00:00 11.1 14 Norte 24 Norte 0 -- -- 65
2018-10-07 00:00:00 13.7 4 Nordeste 16 Norte 0 -- -- 62
2018-10-06 23:00:00 15.6 8 Nordeste 15 Este 0 -- -- 53
2018-10-06 22:00:00 16.2 8 Nordeste 15 Nordeste 0 -- -- 46
2018-10-06 21:00:00 16.8 2 Sudeste 14 Noroeste 0 -- -- 45
2018-10-06 20:00:00 19.5 6 Sudoeste 26 Sudoeste 0 -- -- 38
2018-10-06 19:00:00 21.6 14 Sudoeste 28 Sudoeste 0 -- -- 34
2018-10-06 18:00:00 23 17 Sudoeste 38 Sudoeste 0 -- -- 31
2018-10-06 17:00:00 23.9 18 Sudoeste 33 Sudoeste 0 -- -- 30
2018-10-06 16:00:00 24.1 21 Sudoeste 36 Sudoeste 0 -- -- 29
2018-10-06 15:00:00 24 20 Oeste 35 Sudoeste 0 -- -- 30
2018-10-06 14:00:00 23.6 21 Sudoeste 37 Sudoeste 0 -- -- 30
2018-10-06 13:00:00 23.1 20 Sudoeste 33 Sudoeste 0 -- -- 33
2018-10-06 12:00:00 20.5 3 Sudeste 9 Sudoeste 0 -- -- 41
2018-10-06 11:00:00 15.5 8 Sudoeste 14 Sudoeste 0 -- -- 52
2018-10-06 10:00:00 9.6 8 Sudoeste 21 Sudoeste 0 -- -- 69
2018-10-06 09:00:00 6.8 14 Sudoeste 21 Sudoeste 0 -- -- 74
2018-10-06 08:00:00 6.4 15 Sudoeste 22 Sudoeste 0 -- -- 73
2018-10-06 07:00:00 6.5 13 Sudoeste 20 Oeste 0 -- -- 73
2018-10-06 06:00:00 6.2 10 Oeste 17 Sudoeste 0 -- -- 74
2018-10-06 05:00:00 6.2 13 Sudoeste 19 Sudoeste 0 -- -- 75
2018-10-06 04:00:00 7 10 Sudoeste 15 Oeste 0 -- -- 73
2018-10-06 03:00:00 7.5 8 Oeste 15 Sudoeste 0 -- -- 71
2018-10-06 02:00:00 6.8 9 Sudoeste 12 Sudoeste 0 -- -- 73
2018-10-06 01:00:00 8.3 5 Sudoeste 17 Sudoeste 0 -- -- 68
2018-10-06 00:00:00 10 12 Sudoeste 17 Sudoeste 0 -- -- 61
2018-10-05 23:00:00 11.7 9 Sudoeste 18 Sudoeste 0 -- -- 58
2018-10-05 22:00:00 13.3 5 Sudoeste 12 Oeste 0 -- -- 56
2018-10-05 21:00:00 16 7 Sudoeste 21 Oeste 0 -- -- 45
2018-10-05 20:00:00 19.8 12 Oeste 21 Oeste 0 -- -- 36
2018-10-05 19:00:00 22.8 12 Sudoeste 26 Sudoeste 0 -- -- 32
2018-10-05 18:00:00 24 15 Sudoeste 30 Sudoeste 0 -- -- 28
2018-10-05 17:00:00 24.6 17 Sudoeste 28 Sudoeste 0 -- -- 27
2018-10-05 16:00:00 24.9 17 Sudoeste 29 Sudoeste 0 -- -- 26
2018-10-05 15:00:00 24.8 16 Sudoeste 28 Sudoeste 0 -- -- 27
2018-10-05 14:00:00 24.6 17 Sudoeste 26 Sudoeste 0 -- -- 28
2018-10-05 13:00:00 23.9 15 Sudoeste 23 Sudoeste 0 -- -- 29
2018-10-05 12:00:00 21.4 0 Calma 7 Sudoeste 0 -- -- 37
2018-10-05 11:00:00 16.3 5 Sudoeste 16 Sudoeste 0 -- -- 50
2018-10-05 10:00:00 11 11 Sudoeste 17 Sudoeste 0 -- -- 64
2018-10-05 09:00:00 6.9 12 Sudoeste 21 Sudoeste 0 -- -- 77
2018-10-05 08:00:00 6 9 Sudoeste 15 Sudoeste 0 -- -- 79
2018-10-05 07:00:00 6.5 6 Sudoeste 15 Sudoeste 0 -- -- 76
2018-10-05 06:00:00 7.1 12 Sudoeste 22 Sudoeste 0 -- -- 73
2018-10-05 05:00:00 7 14 Sudoeste 19 Sudoeste 0 -- -- 73
2018-10-05 04:00:00 7.5 14 Sudoeste 19 Sudoeste 0 -- -- 71
2018-10-05 03:00:00 7.7 12 Sudoeste 18 Sudoeste 0 -- -- 71
2018-10-05 02:00:00 8.5 11 Oeste 19 Sudoeste 0 -- -- 68
2018-10-05 01:00:00 8.7 14 Sudoeste 21 Sudoeste 0 -- -- 69
2018-10-05 00:00:00 10 10 Sudoeste 16 Sudoeste 0 -- -- 66
2018-10-04 23:00:00 11.6 9 Oeste 13 Sudoeste 0 -- -- 62
2018-10-04 22:00:00 13.5 5 Sudoeste 14 Sudoeste 0 -- -- 59
2018-10-04 21:00:00 16.9 6 Sudoeste 18 Oeste 0 -- -- 48
2018-10-04 20:00:00 21.1 8 Oeste 18 Oeste 0 -- -- 39
2018-10-04 19:00:00 25.4 5 Noroeste 18 Norte 0 -- -- 28
2018-10-04 18:00:00 26 8 Norte 18 Noroeste 0 -- -- 25
2018-10-04 17:00:00 25.8 8 Nordeste 19 Nordeste 0 -- -- 26
2018-10-04 16:00:00 25.9 10 Noroeste 23 Noroeste 0 -- -- 25
2018-10-04 15:00:00 25.7 7 Norte 22 Norte 0 -- -- 27
2018-10-04 14:00:00 24.6 6 Norte 16 Norte 0 -- -- 26
2018-10-04 13:00:00 23 6 Nordeste 11 Norte 0 -- -- 32
2018-10-04 12:00:00 20 0 Calma 10 Sudoeste 0 -- -- 40
2018-10-04 11:00:00 15.6 9 Sudoeste 15 Sudoeste 0 -- -- 50
2018-10-04 10:00:00 10.1 12 Sudoeste 17 Sudoeste 0 -- -- 67
2018-10-04 09:00:00 5.5 12 Sudoeste 17 Sudoeste 0 -- -- 83
2018-10-04 08:00:00 5.5 11 Sudoeste 21 Sudoeste 0 -- -- 82
2018-10-04 07:00:00 5.8 10 Sudoeste 21 Sudoeste 0 -- -- 80
2018-10-04 06:00:00 5.9 7 Sudoeste 21 Sudoeste 0 -- -- 81
2018-10-04 05:00:00 6.8 11 Sudoeste 19 Sudoeste 0 -- -- 77
2018-10-04 04:00:00 6.8 13 Sudoeste 19 Sudoeste 0 -- -- 78
2018-10-04 03:00:00 8 11 Sudoeste 19 Sudoeste 0 -- -- 72
2018-10-04 02:00:00 8.8 13 Sudoeste 17 Sudoeste 0 -- -- 70
2018-10-04 01:00:00 9.2 13 Sudoeste 18 Sudoeste 0 -- -- 69
2018-10-04 00:00:00 9.3 10 Sudoeste 15 Sudoeste 0 -- -- 70
2018-10-03 23:00:00 11 8 Oeste 13 Oeste 0 -- -- 66
2018-10-03 22:00:00 12.9 6 Oeste 9 Sudoeste 0 -- -- 58
2018-10-03 21:00:00 16.2 4 Oeste 8 Sudoeste 0 -- -- 49
2018-10-03 20:00:00 21.5 2 Norte 18 Norte 0 -- -- 32
2018-10-03 19:00:00 24.3 9 Norte 23 Noroeste 0 -- -- 27
2018-10-03 18:00:00 25.1 10 Norte 23 Noroeste 0 -- -- 25
2018-10-03 17:00:00 25.5 12 Norte 23 Norte 0 -- -- 24
2018-10-03 16:00:00 25.7 12 Norte 25 Noroeste 0 -- -- 24
2018-10-03 15:00:00 25.3 10 Norte 21 Norte 0 -- -- 24
2018-10-03 14:00:00 24.6 9 Norte 21 Nordeste 0 -- -- 24
2018-10-03 13:00:00 23.1 5 Nordeste 15 Norte 0 -- -- 27
2018-10-03 12:00:00 19.5 2 Nordeste 7 Sudoeste 0 -- -- 36
2018-10-03 11:00:00 14.5 2 Sudoeste 9 Sudoeste 0 -- -- 49
2018-10-03 10:00:00 8.7 2 Sudoeste 12 Sudoeste 0 -- -- 66
2018-10-03 09:00:00 4 9 Sudoeste 14 Sudoeste 0 -- -- 80
2018-10-03 08:00:00 4 6 Sudoeste 15 Sudoeste 0 -- -- 76
2018-10-03 07:00:00 4.3 6 Sudoeste 15 Oeste 0 -- -- 76
2018-10-03 06:00:00 4.4 9 Sudoeste 16 Sudoeste 0 -- -- 75
2018-10-03 05:00:00 5 12 Sudoeste 15 Sudoeste 0 -- -- 73
2018-10-03 04:00:00 5.6 9 Sudoeste 18 Sudoeste 0 -- -- 71
2018-10-03 03:00:00 6.2 13 Sudoeste 19 Sudoeste 0 -- -- 68
2018-10-03 02:00:00 6.2 10 Sudoeste 19 Sudoeste 0 -- -- 68
2018-10-03 01:00:00 7.2 11 Sudoeste 19 Sudoeste 0 -- -- 65
2018-10-03 00:00:00 7.4 13 Sudoeste 21 Sudoeste 0 -- -- 64
2018-10-02 23:00:00 8.7 12 Sudoeste 15 Sudoeste 0 -- -- 62
2018-10-02 22:00:00 10.7 8 Sudoeste 11 Sudoeste 0 -- -- 53
2018-10-02 21:00:00 13.7 3 Oeste 14 Norte 0 -- -- 46
2018-10-02 20:00:00 18.4 8 Noroeste 19 Norte 0 -- -- 28
2018-10-02 19:00:00 21 11 Norte 20 Norte 0 -- -- 24
2018-10-02 18:00:00 22.1 9 Norte 22 Norte 0 -- -- 24
2018-10-02 17:00:00 22.1 12 Norte 24 Noroeste 0 -- -- 26
2018-10-02 16:00:00 21.9 12 Noroeste 24 Noroeste 0 -- -- 28
2018-10-02 15:00:00 21.5 13 Norte 23 Norte 0 -- -- 31
2018-10-02 14:00:00 20.9 9 Norte 23 Norte 0 -- -- 30
2018-10-02 13:00:00 18.3 12 Norte 21 Norte 0 -- -- 26
2018-10-02 12:00:00 15.6 7 Norte 12 Norte 0 -- -- 33
2018-10-02 11:00:00 11.1 0 Calma 9 Sudoeste 0 -- -- 47
2018-10-02 10:00:00 5.6 6 Sudoeste 12 Oeste 0 -- -- 65
2018-10-02 09:00:00 1.2 8 Sudoeste 17 Sudoeste 0 -- -- 81
2018-10-02 08:00:00 0.5 8 Sudoeste 15 Sudoeste 0 -- -- 83
2018-10-02 07:00:00 1.1 10 Sudoeste 17 Sudoeste 0 -- -- 86
2018-10-02 06:00:00 1.5 4 Sudoeste 13 Sudoeste 0 -- -- 83
2018-10-02 05:00:00 3.1 8 Sudoeste 22 Sudoeste 0 -- -- 79
2018-10-02 04:00:00 4 13 Sudoeste 20 Sudoeste 0 -- -- 77
2018-10-02 03:00:00 3.9 5 Oeste 11 Sudoeste 0 -- -- 81
2018-10-02 02:00:00 5.7 8 Sudoeste 15 Sudoeste 0 -- -- 76
2018-10-02 01:00:00 5.9 6 Oeste 10 Oeste 0 -- -- 77
2018-10-02 00:00:00 7.5 5 Oeste 10 Oeste 0 -- -- 70
2018-10-01 23:00:00 9.5 7 Sudoeste 9 Sudoeste 0 -- -- 65
2018-10-01 22:00:00 13.7 2 Noroeste 17 Norte 0 -- -- 48
2018-10-01 21:00:00 16.6 9 Norte 20 Norte 0 -- -- 37
2018-10-01 20:00:00 18.5 10 Norte 21 Norte 0 -- -- 37
2018-10-01 19:00:00 21.6 8 Norte 22 Nordeste 0 -- -- 30
2018-10-01 18:00:00 22.1 13 Norte 28 Norte 0 -- -- 29
2018-10-01 17:00:00 22.1 14 Norte 27 Norte 0 -- -- 29
2018-10-01 16:00:00 22.4 13 Norte 29 Norte 0 -- -- 30
2018-10-01 15:00:00 22 12 Norte 23 Noroeste 0 -- -- 30
2018-10-01 14:00:00 20.8 11 Norte 23 Norte 0 -- -- 38
2018-10-01 13:00:00 18.8 8 Norte 15 Nordeste 0 -- -- 39
2018-10-01 12:00:00 16.1 8 Norte 15 Norte 0 -- -- 47
2018-10-01 11:00:00 13.3 5 Norte 15 Norte 0 -- -- 53
2018-10-01 10:00:00 9.6 12 Nordeste 17 Este 0 -- -- 71
2018-10-01 09:00:00 5.6 0 Calma 7 Sudoeste 0 -- -- 90
2018-10-01 08:00:00 5.1 0 Calma -- -- 0 -- -- 89
2018-10-01 07:00:00 6.1 0 Calma 5 Sudoeste 0 -- -- 88
2018-10-01 06:00:00 7.4 0 Calma 15 Sudoeste 0 -- -- 83
2018-10-01 05:00:00 8.3 15 Sudoeste 22 Oeste 0 -- -- 81
2018-10-01 04:00:00 9 11 Sudoeste 17 Sudoeste 0 -- -- 80
2018-10-01 03:00:00 9.1 0 Calma 8 Este 0 -- -- 83
2018-10-01 02:00:00 11 5 Sudoeste 10 Oeste 0 -- -- 78
2018-10-01 01:00:00 12.3 4 Sudoeste 8 Sur 0 -- -- 76
2018-10-01 00:00:00 14 5 Oeste 11 Sudoeste 0 -- -- 71
2018-09-30 23:00:00 15.6 5 Sudoeste 9 Sudoeste 0 -- -- 71
2018-09-30 22:00:00 17.3 6 Sudoeste 8 Sudoeste 0 -- -- 67
2018-09-30 21:00:00 19 3 Sudoeste 13 Sudoeste 0 -- -- 60
2018-09-30 20:00:00 20.3 6 Sudoeste 8 Noroeste 0 -- -- 56
2018-09-30 19:00:00 23.9 5 Norte 14 Norte 0 -- -- 36
2018-09-30 18:00:00 25.3 10 Norte 21 Norte 0 -- -- 33
2018-09-30 17:00:00 26.6 10 Noroeste 22 Noroeste 0 -- -- 29
2018-09-30 16:00:00 26.8 6 Norte 19 Norte 0 -- -- 27
2018-09-30 15:00:00 25 7 Norte 23 Norte 0 -- -- 30
2018-09-30 14:00:00 25.2 12 Norte 20 Norte 0 -- -- 30
2018-09-30 13:00:00 25.1 7 Norte 16 Nordeste 0 -- -- 30
2018-09-30 12:00:00 21.1 5 Sudoeste 12 Sudoeste 0 -- -- 44
2018-09-30 11:00:00 17.2 8 Sudoeste 16 Sudoeste 0 -- -- 57
2018-09-30 10:00:00 13.2 9 Sudoeste 15 Sudoeste 0 -- -- 70
2018-09-30 09:00:00 9.4 8 Sudoeste 18 Sudoeste 0 -- -- 80
2018-09-30 08:00:00 8.3 12 Sudoeste 16 Sudoeste 0 -- -- 83
2018-09-30 07:00:00 8.4 13 Sudoeste 21 Sudoeste 0 -- -- 82
2018-09-30 06:00:00 8.7 10 Sudoeste 20 Sudoeste 0 -- -- 80
2018-09-30 05:00:00 8.8 13 Sudoeste 21 Sudoeste 0 -- -- 81
2018-09-30 04:00:00 9.4 14 Sudoeste 19 Sudoeste 0 -- -- 78
2018-09-30 03:00:00 10.1 10 Sudoeste 18 Sudoeste 0 -- -- 75
2018-09-30 02:00:00 9.8 10 Sudoeste 17 Sudoeste 0 -- -- 79
2018-09-30 01:00:00 10.7 10 Sudoeste 15 Sudoeste 0 -- -- 77
2018-09-30 00:00:00 11.7 9 Sudoeste 14 Sudoeste 0 -- -- 75
2018-09-29 23:00:00 12.9 9 Sudoeste 15 Oeste 0 -- -- 72
2018-09-29 22:00:00 15.2 6 Sudoeste 12 Sudoeste 0 -- -- 65
2018-09-29 21:00:00 17.3 8 Sudoeste 12 Sudoeste 0 -- -- 61
2018-09-29 20:00:00 20.2 8 Sudoeste 11 Sudoeste 0 -- -- 53
2018-09-29 19:00:00 25.6 6 Noroeste 15 Noroeste 0 -- -- 30
2018-09-29 18:00:00 26.6 6 Norte 19 Norte 0 -- -- 29
2018-09-29 17:00:00 26.5 7 Noroeste 23 Norte 0 -- -- 28
2018-09-29 16:00:00 26.6 9 Noroeste 21 Norte 0 -- -- 26
2018-09-29 15:00:00 26.7 9 Norte 25 Norte 0 -- -- 27
2018-09-29 14:00:00 26.3 8 Este 21 Este 0 -- -- 29
2018-09-29 13:00:00 25 6 Nordeste 13 Norte 0 -- -- 31
2018-09-29 12:00:00 21.7 3 Noroeste 13 Sudoeste 0 -- -- 44
2018-09-29 11:00:00 17.7 11 Sudoeste 19 Sudoeste 0 -- -- 52
2018-09-29 10:00:00 13.1 11 Sudoeste 17 Sudoeste 0 -- -- 68
2018-09-29 09:00:00 8.2 11 Sudoeste 19 Sudoeste 0 -- -- 84
2018-09-29 08:00:00 8.1 12 Sudoeste 20 Oeste 0 -- -- 83
2018-09-29 07:00:00 9.2 7 Sudoeste 19 Sudoeste 0 -- -- 74
2018-09-29 06:00:00 9.4 13 Sudoeste 19 Sudoeste 0 -- -- 77
2018-09-29 05:00:00 8.7 12 Sudoeste 17 Sudoeste 0 -- -- 82
2018-09-29 04:00:00 9.3 15 Sudoeste 21 Sudoeste 0 -- -- 80
2018-09-29 03:00:00 10.4 11 Sudoeste 19 Oeste 0 -- -- 75
2018-09-29 02:00:00 10.6 12 Sudoeste 18 Sudoeste 0 -- -- 75
2018-09-29 01:00:00 11.4 11 Sudoeste 17 Sudoeste 0 -- -- 73
2018-09-29 00:00:00 12.3 11 Sudoeste 15 Sudoeste 0 -- -- 71
2018-09-28 23:00:00 14 9 Sudoeste 14 Oeste 0 -- -- 66
2018-09-28 22:00:00 15.7 6 Oeste 9 Oeste 0 -- -- 63
2018-09-28 21:00:00 19.6 0 Calma 11 Noroeste 0 -- -- 44
2018-09-28 20:00:00 23.6 5 Norte 16 Norte 0 -- -- 34
2018-09-28 19:00:00 25.8 10 Norte 19 Nordeste 0 -- -- 31
2018-09-28 18:00:00 26.4 10 Norte 25 Norte 0 -- -- 31
2018-09-28 17:00:00 26.5 8 Norte 25 Norte 0 -- -- 32
2018-09-28 16:00:00 26.1 11 Norte 26 Nordeste 0 -- -- 33
2018-09-28 15:00:00 25.6 9 Norte 24 Nordeste 0 -- -- 36
2018-09-28 14:00:00 25.1 10 Noroeste 23 Noroeste 0 -- -- 37
2018-09-28 13:00:00 24.6 10 Norte 18 Norte 0 -- -- 41
2018-09-28 12:00:00 22.1 2 Sudeste 12 Este 0 -- -- 53
2018-09-28 11:00:00 18 7 Sudoeste 15 Sudoeste 0 -- -- 67
2018-09-28 10:00:00 13.8 12 Sudoeste 19 Sudoeste 0 -- -- 82
2018-09-28 09:00:00 10.5 9 Sudoeste 14 Sudoeste 0 -- -- 91
2018-09-28 08:00:00 10.1 10 Sudoeste 18 Sudoeste 0 -- -- 90
2018-09-28 07:00:00 10.6 14 Sudoeste 20 Sudoeste 0 -- -- 90
2018-09-28 06:00:00 10.7 10 Sudoeste 14 Sudoeste 0 -- -- 90
2018-09-28 05:00:00 10.5 10 Sudoeste 15 Sudoeste 0 -- -- 90
2018-09-28 04:00:00 10.8 10 Sudoeste 17 Sudoeste 0 -- -- 89
2018-09-28 03:00:00 11.3 2 Sur 17 Sudoeste 0 -- -- 85
2018-09-28 02:00:00 12.7 9 Sudoeste 16 Sudoeste 0 -- -- 84
2018-09-28 01:00:00 12.6 9 Sudoeste 13 Sudoeste 0 -- -- 85
2018-09-28 00:00:00 13.6 8 Sudoeste 13 Oeste 0 -- -- 83
2018-09-27 23:00:00 14.7 8 Sudoeste 13 Sudoeste 0 -- -- 78
2018-09-27 22:00:00 16.5 8 Sudoeste 12 Sudoeste 0 -- -- 72
2018-09-27 21:00:00 20 4 Oeste 9 Este 0 -- -- 62
2018-09-27 20:00:00 23.9 4 Nordeste 10 Nordeste 0 -- -- 44
2018-09-27 19:00:00 24.5 5 Nordeste 18 Norte 0 -- -- 41
2018-09-27 18:00:00 25.1 4 Norte 22 Norte 0 -- -- 40
2018-09-27 17:00:00 25.7 7 Noroeste 20 Norte 0 -- -- 41
2018-09-27 16:00:00 25.6 10 Norte 22 Noroeste 0 -- -- 40
2018-09-27 15:00:00 24.9 8 Norte 23 Norte 0 -- -- 45
2018-09-27 14:00:00 24.6 5 Norte 18 Nordeste 0 -- -- 49
2018-09-27 13:00:00 23.3 6 Norte 15 Norte 0 -- -- 50
2018-09-27 12:00:00 21.2 4 Sur 19 Sur 0 -- -- 61
2018-09-27 11:00:00 18.3 13 Sur 19 Sur 0 -- -- 70
2018-09-27 10:00:00 16.1 11 Sudoeste 28 Sur 0 -- -- 77
2018-09-27 09:00:00 14.7 15 Sur 24 Sur 0 -- -- 82
2018-09-27 08:00:00 14.5 6 Sudoeste 23 Sudeste 0 -- -- 82
2018-09-27 07:00:00 14.4 8 Sur 17 Sudeste 0 -- -- 84
2018-09-27 06:00:00 15.1 11 Sudoeste 19 Oeste 0 -- -- 81
2018-09-27 05:00:00 15 13 Oeste 19 Sudoeste 0 -- -- 82
2018-09-27 04:00:00 15.6 6 Sudoeste 21 Sudeste 0 -- -- 81
2018-09-27 03:00:00 14.4 10 Sudoeste 19 Sudoeste 0 -- -- 83
2018-09-27 02:00:00 12.5 12 Sudoeste 18 Oeste 0 -- -- 81
2018-09-27 01:00:00 13.2 9 Oeste 21 Sudoeste 0 -- -- 79
2018-09-27 00:00:00 13.2 11 Sudoeste 17 Oeste 0 -- -- 83
2018-09-26 23:00:00 14.5 6 Oeste 15 Oeste 0 -- -- 80
2018-09-26 22:00:00 15.5 10 Sudoeste 22 Sudoeste 0 -- -- 77
2018-09-26 21:00:00 16.5 11 Sudoeste 19 Sur 0 -- -- 76
2018-09-26 20:00:00 17.6 10 Sur 15 Sur 0 -- -- 72
2018-09-26 19:00:00 18.2 10 Este 14 Este 0 -- -- 71
2018-09-26 18:00:00 18.9 6 Nordeste 36 Sudeste 0 -- -- 67
2018-09-26 17:00:00 18.8 21 Sudeste 43 Sudeste 0 -- -- 66
2018-09-26 16:00:00 22 16 Sudeste 35 Sudeste 0 -- -- 57
2018-09-26 15:00:00 23.9 11 Sudeste 29 Sudeste 0 -- -- 53
2018-09-26 14:00:00 23.8 15 Sudeste 28 Sudeste 0 -- -- 53
2018-09-26 13:00:00 20.9 13 Sudoeste 31 Sudeste 0 -- -- 57
2018-09-26 12:00:00 20.1 21 Sudeste 41 Sudeste 0 -- -- 63
2018-09-26 11:00:00 19.5 15 Sudeste 30 Sudeste 0 -- -- 68
2018-09-26 10:00:00 18.8 11 Sudeste 25 Sur 0 -- -- 67
2018-09-26 09:00:00 16.5 11 Sudeste 22 Sur 0 -- -- 69
2018-09-26 08:00:00 15.8 14 Sudoeste 24 Sur 0 -- -- 72
2018-09-26 07:00:00 16.2 15 Sudoeste 24 Sudoeste 0 -- -- 74
2018-09-26 06:00:00 15.4 13 Oeste 23 Oeste 0 -- -- 72
2018-09-26 05:00:00 13.8 5 Sudoeste 27 Oeste 0 -- -- 68
2018-09-26 04:00:00 13.4 12 Oeste 24 Sudoeste 0 -- -- 71
2018-09-26 03:00:00 12.8 14 Sudoeste 23 Sudoeste 0 -- -- 74
2018-09-26 02:00:00 12.6 12 Sudoeste 17 Sudoeste 0 -- -- 76
2018-09-26 01:00:00 13.2 13 Sudoeste 19 Sudoeste 0 -- -- 74
2018-09-26 00:00:00 13.8 9 Oeste 13 Oeste 0 -- -- 73
2018-09-25 23:00:00 14.8 8 Sudoeste 13 Oeste 0 -- -- 71
2018-09-25 22:00:00 17.1 8 Sudoeste 12 Sudoeste 0 -- -- 62
2018-09-25 21:00:00 20.8 2 Sur 6 Norte 0 -- -- 50
2018-09-25 20:00:00 25.1 5 Norte 17 Nordeste 0 -- -- 36
2018-09-25 19:00:00 27.2 6 Norte 22 Norte 0 -- -- 32
2018-09-25 18:00:00 28 10 Norte 21 Norte 0 -- -- 30
2018-09-25 17:00:00 28 14 Norte 26 Norte 0 -- -- 30
2018-09-25 16:00:00 27.9 10 Norte 25 Norte 0 -- -- 32
2018-09-25 15:00:00 26.9 14 Norte 26 Norte 0 -- -- 34
2018-09-25 14:00:00 26.1 13 Norte 26 Norte 0 -- -- 40
2018-09-25 13:00:00 23.9 11 Norte 17 Norte 0 -- -- 45
2018-09-25 12:00:00 20.9 7 Norte 13 Norte 0 -- -- 54
2018-09-25 11:00:00 18.5 2 Nordeste 6 Sudoeste 0 -- -- 64
2018-09-25 10:00:00 13.4 3 Sudoeste 8 Sudoeste 0 -- -- 84
2018-09-25 09:00:00 9.9 7 Sudoeste 14 Oeste 0 -- -- 94
2018-09-25 08:00:00 8.5 3 Sudoeste 5 Sudoeste 0 -- -- 91
2018-09-25 07:00:00 8.9 3 Este 7 Sudoeste 0 -- -- 91
2018-09-25 06:00:00 9.8 2 Sudoeste 9 Sudoeste 0 -- -- 89
2018-09-25 05:00:00 10.9 5 Sudoeste 9 Sudoeste 0 -- -- 88
2018-09-25 04:00:00 11.6 6 Sudoeste 10 Sudoeste 0 -- -- 87
2018-09-25 03:00:00 12.4 4 Sudoeste 14 Sudoeste 0 -- -- 84
2018-09-25 02:00:00 12.8 7 Sudoeste 10 Sudoeste 0 -- -- 83
2018-09-25 01:00:00 14.2 6 Oeste 12 Sudoeste 0 -- -- 79
2018-09-25 00:00:00 15.1 3 Sudoeste 14 Oeste 0 -- -- 77
2018-09-24 23:00:00 17.1 8 Sudoeste 12 Sudoeste 0 -- -- 70
2018-09-24 22:00:00 21.7 3 Sur 16 Norte 0 -- -- 52
2018-09-24 21:00:00 23.5 7 Norte 14 Norte 0 -- -- 47
2018-09-24 20:00:00 25.9 7 Norte 19 Norte 0 -- -- 42
2018-09-24 19:00:00 28.4 7 Norte 17 Norte 0 -- -- 36
2018-09-24 18:00:00 29.1 8 Norte 21 Noroeste 0 -- -- 33
2018-09-24 17:00:00 29.3 9 Norte 21 Norte 0 -- -- 30
2018-09-24 16:00:00 29.2 8 Norte 22 Norte 0 -- -- 32
2018-09-24 15:00:00 28.8 6 Noroeste 20 Norte 0 -- -- 31
2018-09-24 14:00:00 27.9 9 Norte 18 Norte 0 -- -- 31
2018-09-24 13:00:00 26.5 5 Norte 18 Norte 0 -- -- 32
2018-09-24 12:00:00 23 3 Oeste 12 Sudoeste 0 -- -- 38
2018-09-24 11:00:00 18.7 2 Oeste 6 Sudoeste 0 -- -- 55
2018-09-24 10:00:00 14.6 2 Sudeste 14 Sudoeste 0 -- -- 68
2018-09-24 09:00:00 10.2 11 Sudoeste 22 Sudoeste 0 -- -- 80
2018-09-24 08:00:00 9.7 6 Sudoeste 17 Oeste 0 -- -- 78
2018-09-24 07:00:00 10.3 13 Sudoeste 18 Sudoeste 0 -- -- 77
2018-09-24 06:00:00 10.5 8 Oeste 17 Sudoeste 0 -- -- 76
2018-09-24 05:00:00 11.1 12 Sudoeste 18 Sudoeste 0 -- -- 74
2018-09-24 04:00:00 11.4 5 Sudoeste 18 Sudoeste 0 -- -- 73
2018-09-24 03:00:00 12.6 9 Sudoeste 19 Sudoeste 0 -- -- 70
2018-09-24 02:00:00 12.4 10 Sudoeste 17 Sudoeste 0 -- -- 72
2018-09-24 01:00:00 13.1 9 Sudoeste 15 Oeste 0 -- -- 69
2018-09-24 00:00:00 14.2 10 Sudoeste 14 Sudoeste 0 -- -- 67
2018-09-23 23:00:00 15.6 8 Oeste 12 Oeste 0 -- -- 66
2018-09-23 22:00:00 17.3 5 Sudoeste 12 Sudoeste 0 -- -- 62
2018-09-23 21:00:00 21.7 5 Oeste 9 Oeste 0 -- -- 50
2018-09-23 20:00:00 27.4 4 Norte 14 Norte 0 -- -- 29
2018-09-23 19:00:00 29.5 7 Norte 18 Norte 0 -- -- 25
2018-09-23 18:00:00 30.3 4 Norte 18 Norte 0 -- -- 25
2018-09-23 17:00:00 30.1 8 Norte 20 Nordeste 0 -- -- 25
2018-09-23 16:00:00 30.1 7 Norte 21 Norte 0 -- -- 25
2018-09-23 15:00:00 29.5 6 Nordeste 19 Este 0 -- -- 27
2018-09-23 14:00:00 29 6 Noroeste 19 Norte 0 -- -- 28
2018-09-23 13:00:00 27.6 8 Norte 16 Nordeste 0 -- -- 31
2018-09-23 12:00:00 24 4 Sudoeste 12 Sudoeste 0 -- -- 45
2018-09-23 11:00:00 19.9 7 Sudoeste 14 Sudoeste 0 -- -- 55
2018-09-23 10:00:00 15 10 Sudoeste 15 Sudoeste 0 -- -- 71
2018-09-23 09:00:00 11 4 Sudoeste 17 Oeste 0 -- -- 81
2018-09-23 08:00:00 10 10 Sudoeste 20 Oeste 0 -- -- 83
2018-09-23 07:00:00 10.2 15 Sudoeste 20 Sudoeste 0 -- -- 83
2018-09-23 06:00:00 10.8 13 Sudoeste 20 Sudoeste 0 -- -- 81
2018-09-23 05:00:00 11 10 Sudoeste 19 Oeste 0 -- -- 81
2018-09-23 04:00:00 11.7 13 Sudoeste 23 Sudoeste 0 -- -- 80
2018-09-23 03:00:00 12.7 10 Sudoeste 19 Sudoeste 0 -- -- 75
2018-09-23 02:00:00 12.9 9 Sudoeste 18 Sudoeste 0 -- -- 76
2018-09-23 01:00:00 13.5 11 Sudoeste 17 Sudoeste 0 -- -- 76
2018-09-23 00:00:00 14.3 12 Sudoeste 17 Sudoeste 0 -- -- 75
2018-09-22 23:00:00 15.9 8 Sudoeste 14 Sudoeste 0 -- -- 72
2018-09-22 22:00:00 17.9 6 Sudoeste 15 Sudoeste 0 -- -- 67
2018-09-22 21:00:00 21.2 13 Oeste 17 Oeste 0 -- -- 56
2018-09-22 20:00:00 25.3 5 Sudoeste 11 Oeste 0 -- -- 45
2018-09-22 19:00:00 28.4 5 Noroeste 14 Noroeste 0 -- -- 30
2018-09-22 18:00:00 28.8 9 Noroeste 15 Norte 0 -- -- 29
2018-09-22 17:00:00 28.8 8 Norte 23 Noroeste 0 -- -- 29
2018-09-22 16:00:00 28.8 10 Norte 36 Norte 0 -- -- 29
2018-09-22 15:00:00 28.7 9 Oeste 21 Oeste 0 -- -- 31
2018-09-22 14:00:00 28.3 9 Nordeste 36 Este 0 -- -- 34
2018-09-22 13:00:00 27.3 6 Norte 14 Oeste 0 -- -- 36
2018-09-22 12:00:00 24.3 0 Calma 10 Oeste 0 -- -- 47
2018-09-22 11:00:00 20.4 8 Sudoeste 18 Sudoeste 0 -- -- 59
2018-09-22 10:00:00 16 12 Sudoeste 18 Sudoeste 0 -- -- 72
2018-09-22 09:00:00 12 12 Sudoeste 21 Sudoeste 0 -- -- 82
2018-09-22 08:00:00 10.8 16 Sudoeste 21 Sudoeste 0 -- -- 86
2018-09-22 07:00:00 10.9 10 Sudoeste 18 Sudoeste 0 -- -- 85
2018-09-22 06:00:00 10.6 12 Sudoeste 21 Sudoeste 0 -- -- 86
2018-09-22 05:00:00 10.8 14 Sudoeste 19 Sudoeste 0 -- -- 86
2018-09-22 04:00:00 11.4 9 Sudoeste 17 Sudoeste 0 -- -- 85
2018-09-22 03:00:00 11.6 10 Sudoeste 17 Sudoeste 0 -- -- 84
2018-09-22 02:00:00 12.5 6 Oeste 13 Sudoeste 0 -- -- 81
2018-09-22 01:00:00 13.1 8 Sudoeste 13 Sudoeste 0 -- -- 80
2018-09-22 00:00:00 14.2 9 Oeste 13 Sudoeste 0 -- -- 78
2018-09-21 23:00:00 15.7 6 Sudoeste 10 Oeste 0 -- -- 76
2018-09-21 22:00:00 17.8 6 Oeste 9 Oeste 0 -- -- 71
2018-09-21 21:00:00 20.3 4 Sur 9 Sudoeste 0 -- -- 63
2018-09-21 20:00:00 24.4 6 Sudoeste 18 Oeste 0 -- -- 46
2018-09-21 19:00:00 26.4 5 Noroeste 17 Noroeste 0 -- -- 38
2018-09-21 18:00:00 27 8 Noroeste 17 Oeste 0 -- -- 37
2018-09-21 17:00:00 26.9 9 Noroeste 19 Noroeste 0 -- -- 39
2018-09-21 16:00:00 26.6 10 Norte 23 Noroeste 0 -- -- 38
2018-09-21 15:00:00 27.5 11 Noroeste 25 Noroeste 0 -- -- 38
2018-09-21 14:00:00 26.2 7 Norte 14 Noroeste 0 -- -- 41
2018-09-21 13:00:00 24 3 Este 8 Sudeste 0 -- -- 46
2018-09-21 12:00:00 21.3 4 Sudeste 8 Este 0 -- -- 53
2018-09-21 11:00:00 17.1 5 Oeste 8 Oeste 0 -- -- 71
2018-09-21 10:00:00 13.8 4 Sudoeste 10 Este 0 -- -- 81
2018-09-21 09:00:00 10.5 3 Oeste 9 Sudoeste 0 -- -- 90
2018-09-21 08:00:00 10.3 4 Sudoeste 15 Sudoeste 0 -- -- 89
2018-09-21 07:00:00 10.4 12 Sudoeste 15 Sudoeste 0 -- -- 91
2018-09-21 06:00:00 10.8 0 Calma 10 Oeste 0 -- -- 87
2018-09-21 05:00:00 11.8 8 Sudoeste 14 Sudoeste 0 -- -- 86
2018-09-21 04:00:00 12 10 Sudoeste 14 Sudoeste 0 -- -- 87
2018-09-21 03:00:00 12.6 7 Oeste 12 Oeste 0 -- -- 87
2018-09-21 02:00:00 13.3 5 Oeste 10 Sudoeste 0 -- -- 86
2018-09-21 01:00:00 15.2 7 Oeste 12 Este 0 -- -- 80
2018-09-21 00:00:00 16.4 6 Este 9 Este 0 -- -- 76
2018-09-20 23:00:00 17.3 10 Sudoeste 16 Sudoeste 0 -- -- 73
2018-09-20 22:00:00 18.6 8 Sudoeste 14 Sudoeste 0 -- -- 72
2018-09-20 21:00:00 20.3 10 Sudoeste 13 Sudoeste 0 -- -- 64
2018-09-20 20:00:00 24.1 6 Sudeste 13 Sudeste 0 -- -- 51
2018-09-20 19:00:00 26.1 5 Sudeste 17 Este 0 -- -- 53
2018-09-20 18:00:00 25.6 12 Sudeste 34 Sudeste 0 -- -- 46
2018-09-20 17:00:00 27.5 13 Oeste 33 Sudoeste 0 -- -- 38
2018-09-20 16:00:00 27.5 16 Sudoeste 30 Sudoeste 0 -- -- 40
2018-09-20 15:00:00 24.7 9 Sudoeste 17 Sudoeste 0 -- -- 48
2018-09-20 14:00:00 24.3 2 Sur 13 Sudoeste 0 -- -- 51
2018-09-20 13:00:00 24.7 6 Sudoeste 15 Sudoeste 0 -- -- 47
2018-09-20 12:00:00 23.6 6 Oeste 15 Noroeste 0 -- -- 52
2018-09-20 11:00:00 20.3 9 Sudoeste 18 Sudoeste 0 -- -- 61
2018-09-20 10:00:00 16.2 12 Sudoeste 19 Sudoeste 0 -- -- 75
2018-09-20 09:00:00 12.4 10 Sudoeste 17 Sudoeste 0 -- -- 85
2018-09-20 08:00:00 11.6 10 Sudoeste 18 Sudoeste 0 -- -- 87
2018-09-20 07:00:00 11.6 7 Sudoeste 19 Sudoeste 0 -- -- 86
2018-09-20 06:00:00 11.7 10 Sudoeste 16 Sudoeste 0 -- -- 84
2018-09-20 05:00:00 11.4 8 Sudoeste 18 Sudoeste 0 -- -- 84
2018-09-20 04:00:00 11.5 10 Sudoeste 17 Oeste 0 -- -- 85
2018-09-20 03:00:00 11.8 10 Sudoeste 16 Oeste 0 -- -- 84
2018-09-20 02:00:00 12.9 10 Sudoeste 17 Sudoeste 0 -- -- 81
2018-09-20 01:00:00 13.5 11 Sudoeste 19 Sudoeste 0 -- -- 79
2018-09-20 00:00:00 14.3 10 Sudoeste 16 Sudoeste 0 -- -- 77